Time;durP1;ratioP1;P1;durP2;ratioP2;P2;SDS_P1;SDS_P2;PMS_P1;PMS_P2;Temp;Humidity;BMP_temperature;BMP_pressure;BME280_temperature;BME280_humidity;BME280_pressure;Samples;Min_cycle;Max_cycle;Signal;HPM_P1;HPM_P2
2022/04/24 00:01:06;;;;;;;;;;;9.90;99.90;;;;;;5114359;28;20335;-49
2022/04/24 00:03:32;;;;;;;;;;;9.90;99.90;;;;;;5114191;28;19928;-48
2022/04/24 00:05:57;;;;;;;;;;;9.90;99.90;;;;;;5095903;28;19930;-48
2022/04/24 00:08:23;;;;;;;;;;;9.80;99.90;;;;;;5114309;28;19970;-47
2022/04/24 00:10:48;;;;;;;;;;;9.80;99.90;;;;;;5114117;28;20050;-47
2022/04/24 00:13:14;;;;;;;;;;;9.80;99.90;;;;;;5114123;28;19931;-47
2022/04/24 00:15:39;;;;;;;;;;;9.80;99.90;;;;;;5114222;28;19924;-47
2022/04/24 00:18:05;;;;;;;;;;;9.80;99.90;;;;;;5114053;28;19924;-50
2022/04/24 00:20:31;;;;;;;;;;;9.70;99.90;;;;;;5113943;28;20043;-51
2022/04/24 00:22:56;;;;;;;;;;;9.70;99.90;;;;;;5114054;28;19931;-47
2022/04/24 00:25:21;;;;;;;;;;;9.70;99.90;;;;;;5113799;28;19930;-50
2022/04/24 00:27:47;;;;;;;;;;;9.60;99.90;;;;;;5113986;28;19924;-47
2022/04/24 00:30:12;;;;;;;;;;;9.60;99.90;;;;;;5114018;28;21051;-47
2022/04/24 00:32:38;;;;;;;;;;;9.60;99.90;;;;;;5113894;28;19923;-48
2022/04/24 00:35:04;;;;;;;;;;;9.50;99.90;;;;;;5114300;28;19975;-51
2022/04/24 00:37:29;;;;;;;;;;;9.50;99.90;;;;;;5095536;28;20006;-50
2022/04/24 00:39:55;;;;;;;;;;;9.50;99.90;;;;;;5113979;28;19924;-51
2022/04/24 00:42:21;;;;;;;;;;;9.50;99.90;;;;;;5113743;28;19978;-48
2022/04/24 00:44:46;;;;;;;;;;;9.50;99.90;;;;;;5113900;28;20449;-47
2022/04/24 00:47:18;;;;;;;;;;;9.50;99.90;;;;;;5113732;28;19947;-47
2022/04/24 00:49:44;;;;;;;;;;;9.40;99.90;;;;;;5113501;28;19924;-47
2022/04/24 00:52:11;;;;;;;;;;;9.40;99.90;;;;;;5114473;28;19924;-52
2022/04/24 00:54:37;;;;;;;;;;;9.40;99.90;;;;;;5118033;28;20309;-49
2022/04/24 00:57:05;;;;;;;;;;;9.40;99.90;;;;;;5117798;28;19924;-51
2022/04/24 00:59:30;;;;;;;;;;;9.40;99.90;;;;;;5118113;28;19923;-48
2022/04/24 01:01:56;;;;;;;;;;;9.30;99.90;;;;;;5117632;28;19946;-48
2022/04/24 01:04:21;;;;;;;;;;;9.30;99.90;;;;;;5117589;28;19924;-49
2022/04/24 01:06:47;;;;;;;;;;;9.30;99.90;;;;;;5117950;28;19930;-48
2022/04/24 01:09:14;;;;;;;;;;;9.30;99.90;;;;;;5117928;28;19923;-46
2022/04/24 01:11:39;;;;;;;;;;;9.30;99.90;;;;;;5117779;28;20020;-47
2022/04/24 01:14:05;;;;;;;;;;;9.20;99.90;;;;;;5117628;28;19927;-47
2022/04/24 01:16:31;;;;;;;;;;;9.20;99.90;;;;;;5117454;28;19931;-48
2022/04/24 01:18:57;;;;;;;;;;;9.20;99.90;;;;;;5117625;28;19924;-50
2022/04/24 01:21:22;;;;;;;;;;;9.20;99.90;;;;;;5117502;28;19924;-49
2022/04/24 01:23:48;;;;;;;;;;;9.10;99.90;;;;;;5117227;28;19930;-48
2022/04/24 01:26:13;;;;;;;;;;;9.10;99.90;;;;;;5117383;28;19968;-48
2022/04/24 01:28:39;;;;;;;;;;;9.10;99.90;;;;;;5117368;28;20278;-46
2022/04/24 01:31:05;;;;;;;;;;;9.10;99.90;;;;;;5117267;28;19927;-48
2022/04/24 01:33:31;;;;;;;;;;;9.10;99.90;;;;;;5116984;28;20064;-47
2022/04/24 01:35:56;;;;;;;;;;;9.10;99.90;;;;;;5117264;28;19980;-51
2022/04/24 01:38:22;;;;;;;;;;;9.10;99.90;;;;;;5117089;28;19923;-50
2022/04/24 01:40:47;;;;;;;;;;;9.10;99.90;;;;;;5098866;28;19959;-49
2022/04/24 01:43:13;;;;;;;;;;;9.00;99.90;;;;;;5116780;28;19924;-47
2022/04/24 01:45:38;;;;;;;;;;;9.00;99.90;;;;;;5116842;28;19969;-46
2022/04/24 01:48:04;;;;;;;;;;;9.00;99.90;;;;;;5116683;28;19935;-48
2022/04/24 01:50:29;;;;;;;;;;;9.00;99.90;;;;;;5156313;22;19980;-69
2022/04/24 01:52:55;;;;;;;;;;;8.90;99.90;;;;;;5089346;28;19924;-69
2022/04/24 01:55:21;;;;;;;;;;;8.90;99.90;;;;;;5103053;28;20042;-69
2022/04/24 01:57:46;;;;;;;;;;;8.90;99.90;;;;;;5117105;28;19923;-69
2022/04/24 02:00:12;;;;;;;;;;;8.80;99.90;;;;;;5087510;28;19976;-69
2022/04/24 02:02:37;;;;;;;;;;;8.80;99.90;;;;;;5096078;28;19971;-69
2022/04/24 02:05:03;;;;;;;;;;;8.80;99.90;;;;;;5095143;28;19931;-69
2022/04/24 02:07:29;;;;;;;;;;;8.80;99.90;;;;;;5078711;28;19928;-69
2022/04/24 02:09:55;;;;;;;;;;;8.80;99.90;;;;;;5116913;28;19982;-68
2022/04/24 02:12:20;;;;;;;;;;;8.70;99.90;;;;;;5116840;28;19924;-69
2022/04/24 02:14:46;;;;;;;;;;;8.70;99.90;;;;;;5116620;28;19946;-69
2022/04/24 02:17:11;;;;;;;;;;;8.60;99.90;;;;;;5098127;28;19931;-69
2022/04/24 02:19:37;;;;;;;;;;;8.60;99.90;;;;;;5116679;28;20384;-69
2022/04/24 02:22:03;;;;;;;;;;;8.60;99.90;;;;;;5098296;28;19923;-69
2022/04/24 02:24:28;;;;;;;;;;;8.50;99.90;;;;;;5098032;28;20012;-70
2022/04/24 02:26:54;;;;;;;;;;;8.50;99.90;;;;;;5096291;28;20387;-69
2022/04/24 02:29:19;;;;;;;;;;;8.50;99.90;;;;;;5095861;28;19969;-69
2022/04/24 02:31:45;;;;;;;;;;;8.50;99.90;;;;;;5095799;28;19985;-68
2022/04/24 02:34:10;;;;;;;;;;;8.40;99.90;;;;;;5077637;28;19924;-68
2022/04/24 02:36:36;;;;;;;;;;;8.40;99.90;;;;;;5077620;28;20264;-68
2022/04/24 02:39:01;;;;;;;;;;;8.40;99.90;;;;;;5095924;28;19924;-69
2022/04/24 02:41:27;;;;;;;;;;;8.40;99.90;;;;;;5077661;28;19931;-69
2022/04/24 02:43:53;;;;;;;;;;;8.30;99.90;;;;;;5095726;28;20371;-69
2022/04/24 02:46:18;;;;;;;;;;;8.40;99.90;;;;;;5095879;28;19986;-69
2022/04/24 02:48:43;;;;;;;;;;;8.30;99.90;;;;;;5095870;28;19988;-69
2022/04/24 02:51:09;;;;;;;;;;;8.30;99.90;;;;;;5095715;28;19924;-69
2022/04/24 02:53:34;;;;;;;;;;;8.30;99.90;;;;;;5095688;28;19924;-69
2022/04/24 02:56:00;;;;;;;;;;;8.20;99.90;;;;;;5095763;28;20359;-69
2022/04/24 02:58:26;;;;;;;;;;;8.20;99.90;;;;;;5095671;28;19924;-69
2022/04/24 03:00:51;;;;;;;;;;;8.20;99.90;;;;;;5113120;28;19969;-69
2022/04/24 03:03:20;;;;;;;;;;;8.20;99.90;;;;;;5115787;28;20335;-68
2022/04/24 03:05:46;;;;;;;;;;;8.20;99.90;;;;;;5115943;28;19984;-69
2022/04/24 03:08:12;;;;;;;;;;;8.10;99.90;;;;;;5115710;28;19930;-69
2022/04/24 03:10:38;;;;;;;;;;;8.10;99.90;;;;;;5115545;28;19924;-69
2022/04/24 03:13:03;;;;;;;;;;;8.10;99.90;;;;;;5097355;28;19923;-69
2022/04/24 03:15:29;;;;;;;;;;;8.10;99.90;;;;;;5115195;28;19934;-69
2022/04/24 03:17:54;;;;;;;;;;;8.10;99.90;;;;;;5115743;28;19930;-69
2022/04/24 03:20:20;;;;;;;;;;;8.10;99.90;;;;;;5115626;28;19923;-68
2022/04/24 03:22:46;;;;;;;;;;;8.00;99.90;;;;;;5115382;28;19930;-69
2022/04/24 03:25:11;;;;;;;;;;;8.00;99.90;;;;;;5115574;28;19923;-69
2022/04/24 03:27:37;;;;;;;;;;;8.00;99.90;;;;;;5080085;28;20441;-69
2022/04/24 03:30:03;;;;;;;;;;;8.00;99.90;;;;;;5115352;28;19930;-69
2022/04/24 03:32:32;;;;;;;;;;;8.00;99.90;;;;;;5115269;28;20015;-68
2022/04/24 03:34:57;;;;;;;;;;;8.00;99.90;;;;;;5096853;28;19930;-69
2022/04/24 03:37:23;;;;;;;;;;;7.90;99.90;;;;;;5115087;28;19924;-69
2022/04/24 03:39:48;;;;;;;;;;;7.90;99.90;;;;;;5115242;28;19931;-69
2022/04/24 03:42:14;;;;;;;;;;;7.90;99.90;;;;;;5115036;28;19923;-68
2022/04/24 03:44:39;;;;;;;;;;;7.90;99.90;;;;;;5114707;28;20393;-69
2022/04/24 03:47:06;;;;;;;;;;;7.80;99.90;;;;;;5114975;28;20286;-69
2022/04/24 03:49:31;;;;;;;;;;;7.80;99.90;;;;;;5114698;28;19930;-69
2022/04/24 03:51:57;;;;;;;;;;;7.80;99.90;;;;;;5096149;28;19924;-69
2022/04/24 03:54:22;;;;;;;;;;;7.70;99.90;;;;;;5114923;28;20023;-69
2022/04/24 03:56:48;;;;;;;;;;;7.70;99.90;;;;;;5114823;28;19927;-69
2022/04/24 03:59:13;;;;;;;;;;;7.60;99.90;;;;;;5114657;28;20010;-69
2022/04/24 04:01:39;;;;;;;;;;;7.60;99.90;;;;;;5114769;28;19927;-68
2022/04/24 04:04:04;;;;;;;;;;;7.60;99.90;;;;;;5096175;28;19935;-69
2022/04/24 04:06:30;;;;;;;;;;;7.60;99.90;;;;;;5114511;28;19924;-69
2022/04/24 04:08:55;;;;;;;;;;;7.60;99.90;;;;;;5114606;28;20004;-69
2022/04/24 04:11:21;;;;;;;;;;;7.60;99.90;;;;;;5096113;28;20374;-69
2022/04/24 04:13:46;;;;;;;;;;;7.50;99.90;;;;;;5114438;28;20377;-69
2022/04/24 04:16:12;;;;;;;;;;;7.50;99.90;;;;;;5114478;28;19959;-69
2022/04/24 04:18:37;;;;;;;;;;;7.50;99.90;;;;;;5114468;28;19924;-69
2022/04/24 04:21:03;;;;;;;;;;;7.50;99.90;;;;;;5096257;28;20406;-69
2022/04/24 04:23:28;;;;;;;;;;;7.50;99.90;;;;;;5096175;28;19978;-69
2022/04/24 04:25:54;;;;;;;;;;;7.50;99.90;;;;;;5095858;28;19978;-69
2022/04/24 04:28:19;;;;;;;;;;;7.50;99.90;;;;;;5094923;28;19976;-69
2022/04/24 04:30:44;;;;;;;;;;;7.40;99.90;;;;;;5114276;28;19935;-69
2022/04/24 04:33:10;;;;;;;;;;;7.40;99.90;;;;;;5114255;28;19924;-69
2022/04/24 04:35:36;;;;;;;;;;;7.40;99.90;;;;;;5095683;28;19931;-69
2022/04/24 04:38:01;;;;;;;;;;;7.40;99.90;;;;;;5114384;28;20015;-69
2022/04/24 04:40:27;;;;;;;;;;;7.40;99.90;;;;;;5114201;28;19972;-69
2022/04/24 04:42:52;;;;;;;;;;;7.40;99.90;;;;;;5095588;28;20414;-69
2022/04/24 04:45:18;;;;;;;;;;;7.40;99.90;;;;;;5096080;28;19972;-69
2022/04/24 04:47:44;;;;;;;;;;;7.40;99.90;;;;;;5114157;28;19930;-69
2022/04/24 04:50:09;;;;;;;;;;;7.40;99.90;;;;;;5113699;28;19992;-69
2022/04/24 04:52:35;;;;;;;;;;;7.50;99.90;;;;;;5113973;28;19919;-69
2022/04/24 04:55:01;;;;;;;;;;;7.50;99.90;;;;;;5113780;28;20426;-69
2022/04/24 04:57:26;;;;;;;;;;;7.50;99.90;;;;;;5113908;28;19981;-69
2022/04/24 04:59:52;;;;;;;;;;;7.50;99.90;;;;;;5113983;28;19924;-69
2022/04/24 05:02:17;;;;;;;;;;;7.50;99.90;;;;;;5113947;28;20294;-69
2022/04/24 05:04:43;;;;;;;;;;;7.50;99.90;;;;;;5114103;28;19924;-69
2022/04/24 05:07:11;;;;;;;;;;;7.50;99.90;;;;;;5114097;28;20394;-68
2022/04/24 05:09:37;;;;;;;;;;;7.60;99.90;;;;;;5095644;28;19933;-68
2022/04/24 05:12:03;;;;;;;;;;;7.60;99.90;;;;;;5113684;28;19924;-69
2022/04/24 05:14:29;;;;;;;;;;;7.70;99.90;;;;;;5095690;28;19947;-69
2022/04/24 05:16:54;;;;;;;;;;;7.70;99.90;;;;;;5095403;28;20414;-68
2022/04/24 05:19:20;;;;;;;;;;;7.80;99.90;;;;;;5113705;28;19924;-69
2022/04/24 05:21:45;;;;;;;;;;;7.90;99.90;;;;;;5113832;28;19931;-69
2022/04/24 05:24:11;;;;;;;;;;;7.90;99.90;;;;;;5078256;28;19970;-69
2022/04/24 05:26:36;;;;;;;;;;;7.90;99.90;;;;;;5113649;28;19923;-69
2022/04/24 05:29:03;;;;;;;;;;;7.90;99.90;;;;;;5113743;28;20002;-69
2022/04/24 05:31:30;;;;;;;;;;;8.00;99.90;;;;;;5095432;28;19958;-69
2022/04/24 05:33:56;;;;;;;;;;;8.00;99.90;;;;;;5113557;28;20266;-69
2022/04/24 05:36:21;;;;;;;;;;;8.40;99.90;;;;;;5095498;28;19924;-69
2022/04/24 05:38:47;;;;;;;;;;;9.30;99.90;;;;;;5115171;28;19924;-69
2022/04/24 05:41:12;;;;;;;;;;;9.90;99.90;;;;;;5117031;28;19924;-69
2022/04/24 05:43:38;;;;;;;;;;;10.00;99.90;;;;;;5098860;28;19924;-69
2022/04/24 05:46:03;;;;;;;;;;;10.10;99.90;;;;;;5117309;28;20020;-69
2022/04/24 05:48:29;;;;;;;;;;;10.40;99.90;;;;;;5117146;28;19924;-69
2022/04/24 05:50:54;;;;;;;;;;;10.60;99.90;;;;;;5098517;28;20020;-69
2022/04/24 05:53:20;;;;;;;;;;;11.20;99.90;;;;;;5098660;28;19923;-69
2022/04/24 05:55:45;;;;;;;;;;;11.50;99.90;;;;;;5116903;28;20386;-69
2022/04/24 05:58:11;;;;;;;;;;;11.70;99.90;;;;;;5117262;28;20381;-69
2022/04/24 06:00:36;;;;;;;;;;;11.90;99.90;;;;;;5117165;28;19984;-69
2022/04/24 06:03:02;;;;;;;;;;;12.00;99.90;;;;;;5117113;28;19931;-69
2022/04/24 06:05:28;;;;;;;;;;;11.60;99.90;;;;;;5116881;28;19931;-67
2022/04/24 06:07:54;;;;;;;;;;;12.00;99.90;;;;;;5117114;28;20010;-67
2022/04/24 06:10:20;;;;;;;;;;;12.00;99.90;;;;;;5116804;28;19931;-69
2022/04/24 06:12:49;;;;;;;;;;;12.50;99.90;;;;;;5116999;28;20371;-69
2022/04/24 06:15:16;;;;;;;;;;;11.70;99.90;;;;;;5116810;28;19976;-69
2022/04/24 06:17:42;;;;;;;;;;;11.20;99.90;;;;;;5116909;28;19967;-69
2022/04/24 06:20:08;;;;;;;;;;;10.80;99.90;;;;;;5116967;28;19923;-70
2022/04/24 06:22:43;;;;;;;;;;;10.30;99.90;;;;;;5081885;28;19924;-69
2022/04/24 06:25:09;;;;;;;;;;;10.10;99.90;;;;;;5116325;28;20014;-69
2022/04/24 06:27:34;;;;;;;;;;;10.10;99.90;;;;;;5116851;28;20049;-69
2022/04/24 06:30:01;;;;;;;;;;;9.90;99.90;;;;;;5098108;28;19931;-69
2022/04/24 06:32:30;;;;;;;;;;;9.90;99.90;;;;;;5116589;28;19923;-69
2022/04/24 06:34:55;;;;;;;;;;;10.00;99.90;;;;;;5116630;28;19931;-69
2022/04/24 06:37:21;;;;;;;;;;;10.10;99.90;;;;;;5098232;28;19924;-70
2022/04/24 06:39:46;;;;;;;;;;;10.10;99.90;;;;;;5081081;28;19924;-69
2022/04/24 06:42:12;;;;;;;;;;;9.90;99.90;;;;;;5097932;28;19951;-69
2022/04/24 06:44:37;;;;;;;;;;;9.90;99.90;;;;;;5116440;28;20393;-69
2022/04/24 06:47:03;;;;;;;;;;;10.00;99.90;;;;;;5097860;28;19924;-69
2022/04/24 06:49:29;;;;;;;;;;;10.00;99.90;;;;;;5115942;28;20281;-69
2022/04/24 06:51:54;;;;;;;;;;;10.00;99.90;;;;;;5115452;28;20007;-69
2022/04/24 06:54:20;;;;;;;;;;;10.30;99.90;;;;;;5115777;28;20402;-69
2022/04/24 06:56:45;;;;;;;;;;;10.30;99.90;;;;;;5116023;28;19924;-69
2022/04/24 06:59:11;;;;;;;;;;;10.60;99.90;;;;;;5115966;28;19959;-69
2022/04/24 07:01:36;;;;;;;;;;;11.00;99.90;;;;;;5115772;28;19924;-69
2022/04/24 07:04:01;;;;;;;;;;;11.30;99.90;;;;;;5115919;28;19930;-69
2022/04/24 07:06:27;;;;;;;;;;;11.30;99.90;;;;;;5115951;28;20010;-69
2022/04/24 07:08:52;;;;;;;;;;;11.50;99.90;;;;;;5115508;28;19924;-69
2022/04/24 07:11:18;;;;;;;;;;;11.50;99.90;;;;;;5115767;28;20020;-69
2022/04/24 07:13:44;;;;;;;;;;;11.60;99.90;;;;;;5115804;28;19924;-69
2022/04/24 07:16:09;;;;;;;;;;;11.30;99.90;;;;;;5115767;28;19931;-69
2022/04/24 07:18:35;;;;;;;;;;;11.80;99.90;;;;;;5115502;28;20387;-69
2022/04/24 07:21:02;;;;;;;;;;;12.00;99.90;;;;;;5115497;28;19963;-69
2022/04/24 07:23:28;;;;;;;;;;;12.20;99.90;;;;;;5097231;28;19924;-69
2022/04/24 07:25:54;;;;;;;;;;;12.20;99.90;;;;;;5115207;28;20015;-69
2022/04/24 07:28:19;;;;;;;;;;;12.30;99.90;;;;;;5096927;28;19923;-69
2022/04/24 07:30:45;;;;;;;;;;;12.00;99.90;;;;;;5115348;28;19924;-69
2022/04/24 07:33:11;;;;;;;;;;;11.70;99.90;;;;;;5096918;28;19931;-69
2022/04/24 07:35:38;;;;;;;;;;;11.70;99.90;;;;;;5114998;28;20375;-67
2022/04/24 07:38:03;;;;;;;;;;;12.10;99.90;;;;;;5115412;28;19981;-67
2022/04/24 07:40:31;;;;;;;;;;;11.80;99.90;;;;;;5097125;28;20383;-67
2022/04/24 07:42:58;;;;;;;;;;;11.90;99.90;;;;;;5114905;28;20418;-66
2022/04/24 07:45:29;;;;;;;;;;;11.80;99.90;;;;;;5080374;28;20065;-67
2022/04/24 07:47:54;;;;;;;;;;;12.00;99.90;;;;;;5115200;28;20014;-67
2022/04/24 07:50:21;;;;;;;;;;;11.90;99.90;;;;;;5114477;28;20420;-67
2022/04/24 07:52:47;;;;;;;;;;;12.00;99.90;;;;;;5114827;28;20378;-67
2022/04/24 07:55:15;;;;;;;;;;;12.00;99.90;;;;;;5114797;28;19923;-67
2022/04/24 07:57:40;;;;;;;;;;;12.40;99.90;;;;;;5096533;28;19924;-67
2022/04/24 08:00:12;;;;;;;;;;;12.50;99.90;;;;;;5114746;28;19924;-67
2022/04/24 08:02:46;;;;;;;;;;;12.50;99.90;;;;;;5114956;28;20022;-67
2022/04/24 08:05:12;;;;;;;;;;;12.60;99.90;;;;;;5114822;28;20298;-67
2022/04/24 08:07:38;;;;;;;;;;;12.90;99.90;;;;;;5114722;28;19923;-68
2022/04/24 08:10:03;;;;;;;;;;;12.90;99.90;;;;;;5114630;28;19924;-67
2022/04/24 08:12:29;;;;;;;;;;;12.70;99.90;;;;;;5096360;28;19927;-68
2022/04/24 08:14:54;;;;;;;;;;;12.90;99.90;;;;;;5114426;28;19930;-67
2022/04/24 08:17:20;;;;;;;;;;;12.80;99.90;;;;;;5096377;28;19924;-67
2022/04/24 08:19:45;;;;;;;;;;;12.80;99.90;;;;;;5114151;28;19981;-67
2022/04/24 08:22:11;;;;;;;;;;;12.80;99.90;;;;;;5114442;28;19930;-67
2022/04/24 08:24:36;;;;;;;;;;;12.90;99.90;;;;;;5114522;28;20291;-67
2022/04/24 08:27:02;;;;;;;;;;;12.90;99.90;;;;;;5114501;28;20042;-67
2022/04/24 08:29:27;;;;;;;;;;;13.10;99.90;;;;;;5079067;28;20053;-67
2022/04/24 08:31:52;;;;;;;;;;;13.00;99.90;;;;;;5096255;28;19924;-67
2022/04/24 08:34:19;;;;;;;;;;;;;;;;;;5079059;28;19935;-67
2022/04/24 08:36:45;;;;;;;;;;;13.40;98.70;;;;;;5114385;28;19969;-68
2022/04/24 08:39:10;;;;;;;;;;;13.20;98.90;;;;;;5095838;28;20340;-67
2022/04/24 08:41:37;;;;;;;;;;;13.20;99.20;;;;;;5114038;28;20008;-67
2022/04/24 08:44:03;;;;;;;;;;;13.40;98.90;;;;;;5095787;28;20409;-67
2022/04/24 08:46:28;;;;;;;;;;;13.30;98.50;;;;;;5113973;28;19924;-67
2022/04/24 08:48:54;;;;;;;;;;;13.60;98.50;;;;;;5114424;28;20014;-67
2022/04/24 08:51:20;;;;;;;;;;;13.90;98.10;;;;;;5113963;28;19934;-68
2022/04/24 08:53:47;;;;;;;;;;;13.90;97.20;;;;;;5096176;28;19924;-67
2022/04/24 08:56:12;;;;;;;;;;;14.10;97.80;;;;;;5113976;28;19970;-67
2022/04/24 08:58:39;;;;;;;;;;;13.80;96.90;;;;;;5095685;28;20390;-67
2022/04/24 09:01:04;;;;;;;;;;;14.10;97.50;;;;;;5114084;28;20056;-67
2022/04/24 09:03:30;;;;;;;;;;;14.20;97.00;;;;;;5114030;28;20010;-67
2022/04/24 09:05:55;;;;;;;;;;;14.10;96.90;;;;;;5113821;28;19931;-67
2022/04/24 09:08:24;;;;;;;;;;;14.10;96.30;;;;;;5113914;28;19924;-67
2022/04/24 09:10:50;;;;;;;;;;;14.10;96.00;;;;;;5095517;28;19970;-67
2022/04/24 09:13:25;;;;;;;;;;;14.20;95.70;;;;;;5114630;28;19923;-67
2022/04/24 09:15:58;;;;;;;;;;;14.20;94.60;;;;;;5117779;28;19924;-67
2022/04/24 09:18:35;;;;;;;;;;;14.50;93.60;;;;;;5118102;28;19973;-68
2022/04/24 09:21:01;;;;;;;;;;;14.50;92.70;;;;;;5099926;28;20336;-67
2022/04/24 09:23:33;;;;;;;;;;;14.60;93.10;;;;;;5099375;28;19923;-67
2022/04/24 09:25:59;;;;;;;;;;;14.60;91.90;;;;;;5117951;28;19924;-67
2022/04/24 09:28:34;;;;;;;;;;;14.50;91.00;;;;;;5117541;28;19930;-67
2022/04/24 09:31:03;;;;;;;;;;;14.80;91.80;;;;;;5117866;28;19928;-67
2022/04/24 09:33:34;;;;;;;;;;;14.70;90.80;;;;;;5117489;28;20438;-67
2022/04/24 09:36:00;;;;;;;;;;;14.90;90.10;;;;;;5117774;28;19986;-67
2022/04/24 09:38:25;;;;;;;;;;;15.00;88.20;;;;;;5117451;28;19955;-68
2022/04/24 09:40:51;;;;;;;;;;;15.00;88.20;;;;;;5117293;28;19924;-68
2022/04/24 09:43:17;;;;;;;;;;;15.30;89.80;;;;;;5117280;28;19976;-67
2022/04/24 09:45:48;;;;;;;;;;;15.50;85.20;;;;;;5065461;28;19976;-67
2022/04/24 09:48:14;;;;;;;;;;;15.50;84.30;;;;;;5117679;28;19923;-67
2022/04/24 09:50:40;;;;;;;;;;;15.50;81.60;;;;;;5098736;28;19927;-67
2022/04/24 09:53:06;;;;;;;;;;;15.70;82.20;;;;;;5117118;28;20286;-67
2022/04/24 09:55:32;;;;;;;;;;;15.90;82.60;;;;;;5098649;28;19928;-67
2022/04/24 09:57:58;;;;;;;;;;;15.80;80.50;;;;;;5117224;28;19924;-68
2022/04/24 10:00:23;;;;;;;;;;;15.70;78.90;;;;;;5117151;28;19924;-67
2022/04/24 10:02:52;;;;;;;;;;;15.70;78.00;;;;;;5116995;28;19924;-67
2022/04/24 10:05:18;;;;;;;;;;;16.10;79.50;;;;;;5117256;28;20416;-68
2022/04/24 10:07:44;;;;;;;;;;;16.20;76.60;;;;;;5116860;28;19928;-67
2022/04/24 10:10:10;;;;;;;;;;;16.20;75.90;;;;;;5098792;28;19927;-67
2022/04/24 10:12:35;;;;;;;;;;;16.20;76.40;;;;;;5098575;28;20283;-67
2022/04/24 10:15:03;;;;;;;;;;;16.20;74.60;;;;;;5116949;28;19970;-67
2022/04/24 10:17:47;;;;;;;;;;;16.20;75.00;;;;;;5098551;28;19931;-67
2022/04/24 10:20:19;;;;;;;;;;;16.20;74.30;;;;;;5098318;28;20018;-67
2022/04/24 10:22:49;;;;;;;;;;;16.30;75.40;;;;;;5116802;28;19924;-67
2022/04/24 10:25:15;;;;;;;;;;;16.00;73.30;;;;;;5097292;28;20347;-67
2022/04/24 10:27:40;;;;;;;;;;;16.00;73.20;;;;;;5098304;28;19928;-67
2022/04/24 10:30:06;;;;;;;;;;;16.20;72.10;;;;;;5116621;28;20398;-67
2022/04/24 10:32:32;;;;;;;;;;;16.20;71.50;;;;;;5116368;28;20271;-67
2022/04/24 10:34:58;;;;;;;;;;;16.40;72.50;;;;;;5098063;28;19930;-67
2022/04/24 10:37:25;;;;;;;;;;;16.60;72.70;;;;;;5116584;28;19924;-68
2022/04/24 10:39:58;;;;;;;;;;;16.50;70.50;;;;;;5116212;28;19934;-67
2022/04/24 10:42:30;;;;;;;;;;;16.60;69.10;;;;;;5116168;28;19930;-68
2022/04/24 10:45:03;;;;;;;;;;;16.60;68.30;;;;;;5116216;28;19946;-67
2022/04/24 10:47:38;;;;;;;;;;;16.70;70.70;;;;;;5098126;28;19932;-67
2022/04/24 10:50:06;;;;;;;;;;;16.50;70.70;;;;;;5116018;28;19949;-67
2022/04/24 10:52:37;;;;;;;;;;;16.60;71.40;;;;;;5097741;28;19923;-67
2022/04/24 10:55:06;;;;;;;;;;;16.60;71.30;;;;;;5116189;28;19928;-67
2022/04/24 10:57:39;;;;;;;;;;;16.50;69.20;;;;;;5097887;28;19923;-67
2022/04/24 11:00:12;;;;;;;;;;;16.40;68.90;;;;;;5116087;28;20018;-68
2022/04/24 11:02:38;;;;;;;;;;;16.50;69.30;;;;;;5115964;28;19967;-67
2022/04/24 11:05:05;;;;;;;;;;;16.80;68.30;;;;;;5115753;28;19973;-67
2022/04/24 11:07:31;;;;;;;;;;;16.80;67.10;;;;;;5097475;28;19924;-67
2022/04/24 11:10:09;;;;;;;;;;;16.60;66.30;;;;;;5115617;28;20287;-67
2022/04/24 11:12:35;;;;;;;;;;;16.60;66.10;;;;;;5115520;28;19971;-67
2022/04/24 11:15:07;;;;;;;;;;;16.70;66.00;;;;;;5115552;28;19923;-67
2022/04/24 11:17:33;;;;;;;;;;;16.60;65.40;;;;;;5115688;28;20011;-67
2022/04/24 11:20:09;;;;;;;;;;;16.70;66.20;;;;;;5115959;28;19963;-67
2022/04/24 11:22:44;;;;;;;;;;;17.10;67.20;;;;;;5115292;28;19924;-68
2022/04/24 11:25:11;;;;;;;;;;;17.10;65.40;;;;;;5115262;28;20398;-67
2022/04/24 11:27:36;;;;;;;;;;;17.00;63.10;;;;;;5115331;28;19977;-68
2022/04/24 11:30:02;;;;;;;;;;;17.20;62.90;;;;;;5097748;28;19927;-67
2022/04/24 11:32:28;;;;;;;;;;;16.90;62.50;;;;;;5097304;28;19924;-67
2022/04/24 11:34:54;;;;;;;;;;;16.70;62.00;;;;;;5115150;28;20400;-67
2022/04/24 11:37:21;;;;;;;;;;;16.60;62.50;;;;;;5115257;28;19928;-66
2022/04/24 11:39:47;;;;;;;;;;;16.80;62.90;;;;;;5115337;28;19928;-67
2022/04/24 11:42:12;;;;;;;;;;;17.00;63.10;;;;;;5115157;28;19924;-67
2022/04/24 11:50:15;;;;;;;;;;;16.90;62.10;;;;;;5114434;28;19931;-67
2022/04/24 11:52:43;;;;;;;;;;;17.10;62.00;;;;;;5115113;28;19923;-67
2022/04/24 11:55:09;;;;;;;;;;;16.80;63.20;;;;;;5114892;28;20321;-67
2022/04/24 11:57:35;;;;;;;;;;;16.90;65.50;;;;;;5096361;28;19924;-68
2022/04/24 12:00:04;;;;;;;;;;;16.90;64.90;;;;;;5114936;28;20393;-68
2022/04/24 12:02:29;;;;;;;;;;;17.00;64.50;;;;;;5114716;28;19923;-69
2022/04/24 12:04:56;;;;;;;;;;;17.30;65.90;;;;;;5114610;28;20351;-67
2022/04/24 12:07:34;;;;;;;;;;;17.00;64.00;;;;;;5114816;28;19935;-67
2022/04/24 12:10:04;;;;;;;;;;;17.20;64.20;;;;;;5114801;28;19923;-67
2022/04/24 12:12:30;;;;;;;;;;;17.10;63.80;;;;;;5114735;28;19927;-67
2022/04/24 12:14:56;;;;;;;;;;;16.90;62.30;;;;;;5114473;28;20306;-67
2022/04/24 12:17:22;;;;;;;;;;;16.90;63.00;;;;;;5096131;28;19973;-67
2022/04/24 12:19:49;;;;;;;;;;;16.50;63.50;;;;;;5114689;28;19924;-67
2022/04/24 12:22:14;;;;;;;;;;;16.70;63.90;;;;;;5096348;28;19924;-68
2022/04/24 12:24:41;;;;;;;;;;;16.80;63.10;;;;;;5096398;28;19935;-67
2022/04/24 12:27:09;;;;;;;;;;;17.00;62.70;;;;;;5114350;28;19971;-67
2022/04/24 12:29:42;;;;;;;;;;;16.90;62.30;;;;;;5114233;28;20296;-67
2022/04/24 12:32:12;;;;;;;;;;;17.10;61.80;;;;;;5114208;28;19924;-67
2022/04/24 12:34:38;;;;;;;;;;;17.30;61.20;;;;;;5095990;28;20007;-67
2022/04/24 12:37:03;;;;;;;;;;;17.40;60.90;;;;;;5114167;28;19982;-67
2022/04/24 12:39:29;;;;;;;;;;;17.70;61.20;;;;;;5095849;28;19973;-67
2022/04/24 12:41:54;;;;;;;;;;;18.10;60.50;;;;;;5079342;28;19931;-67
2022/04/24 12:44:20;;;;;;;;;;;17.40;60.10;;;;;;5095628;28;19967;-68
2022/04/24 12:46:49;;;;;;;;;;;17.10;62.70;;;;;;5095797;28;19923;-67
2022/04/24 12:49:25;;;;;;;;;;;16.70;62.70;;;;;;5113611;28;19959;-67
2022/04/24 12:51:51;;;;;;;;;;;16.50;63.90;;;;;;5113876;28;19924;-67
2022/04/24 12:54:17;;;;;;;;;;;16.40;64.50;;;;;;5114056;28;20015;-67
2022/04/24 12:56:42;;;;;;;;;;;16.30;64.20;;;;;;5113897;28;19974;-67
2022/04/24 12:59:08;;;;;;;;;;;16.00;63.80;;;;;;5096049;28;19924;-67
2022/04/24 13:01:33;;;;;;;;;;;15.80;63.60;;;;;;5096042;28;19923;-67
2022/04/24 13:03:59;;;;;;;;;;;16.20;63.70;;;;;;5095585;28;20076;-67
2022/04/24 13:06:25;;;;;;;;;;;16.40;63.00;;;;;;5113919;28;19931;-67
2022/04/24 13:08:53;;;;;;;;;;;16.50;64.40;;;;;;5114135;28;19963;-67
2022/04/24 13:11:23;;;;;;;;;;;16.60;64.30;;;;;;5114074;28;20013;-67
2022/04/24 13:13:52;;;;;;;;;;;16.70;63.40;;;;;;5114016;28;19924;-67
2022/04/24 13:19:02;;;;;;;;;;;17.70;60.40;;;;;;5095849;28;19924;-67
2022/04/24 13:21:27;;;;;;;;;;;17.60;59.10;;;;;;5113705;28;19924;-67
2022/04/24 13:23:53;;;;;;;;;;;17.50;59.10;;;;;;5113769;28;20401;-67
2022/04/24 13:26:19;;;;;;;;;;;17.90;60.70;;;;;;5113723;28;20026;-67
2022/04/24 13:28:44;;;;;;;;;;;17.90;60.30;;;;;;5113966;28;19928;-67
2022/04/24 13:31:10;;;;;;;;;;;17.50;60.20;;;;;;5113889;28;19927;-68
2022/04/24 13:33:35;;;;;;;;;;;17.10;59.20;;;;;;5113731;28;19946;-67
2022/04/24 13:36:01;;;;;;;;;;;16.90;59.10;;;;;;5113552;28;19924;-67
2022/04/24 13:38:28;;;;;;;;;;;16.60;61.60;;;;;;5113748;28;19924;-67
2022/04/24 13:40:54;;;;;;;;;;;16.70;62.20;;;;;;5096065;28;19924;-67
2022/04/24 13:43:20;;;;;;;;;;;16.80;62.00;;;;;;5113730;28;19935;-67
2022/04/24 13:45:48;;;;;;;;;;;17.10;61.90;;;;;;5113520;28;19923;-67
2022/04/24 13:48:13;;;;;;;;;;;17.50;61.70;;;;;;5113756;28;19924;-68
2022/04/24 13:50:39;;;;;;;;;;;17.70;60.70;;;;;;5113607;28;19931;-67
2022/04/24 13:53:05;;;;;;;;;;;17.50;60.90;;;;;;5113345;28;19927;-67
2022/04/24 13:55:30;;;;;;;;;;;17.30;60.00;;;;;;5113330;28;20061;-67
2022/04/24 13:57:56;;;;;;;;;;;17.00;61.50;;;;;;5078363;28;19931;-67
2022/04/24 14:00:23;;;;;;;;;;;17.30;61.80;;;;;;5115959;28;19924;-67
2022/04/24 14:02:49;;;;;;;;;;;17.40;60.80;;;;;;5117181;28;19931;-68
2022/04/24 14:05:15;;;;;;;;;;;17.50;60.10;;;;;;5117058;28;19958;-67
2022/04/24 14:07:40;;;;;;;;;;;17.10;59.60;;;;;;5116878;28;19927;-67
2022/04/24 14:10:07;;;;;;;;;;;16.90;60.00;;;;;;5116851;28;19930;-67
2022/04/24 14:12:32;;;;;;;;;;;17.00;60.70;;;;;;5116998;28;19930;-67
2022/04/24 14:14:58;;;;;;;;;;;17.30;60.70;;;;;;5117245;28;19923;-67
2022/04/24 14:17:23;;;;;;;;;;;17.60;61.30;;;;;;5117021;28;19963;-67
2022/04/24 14:19:49;;;;;;;;;;;17.70;60.80;;;;;;5098745;28;19973;-67
2022/04/24 14:22:14;;;;;;;;;;;17.50;61.40;;;;;;5116544;28;19927;-66
2022/04/24 14:24:40;;;;;;;;;;;17.30;61.50;;;;;;5116820;28;20049;-67
2022/04/24 14:27:05;;;;;;;;;;;17.00;62.00;;;;;;5116684;28;20432;-67